Time;durP1;ratioP1;P1;durP2;ratioP2;P2;SDS_P1;SDS_P2;PMS_P1;PMS_P2;Temp;Humidity;BMP_temperature;BMP_pressure;BME280_temperature;BME280_humidity;BME280_pressure;Samples;Min_cycle;Max_cycle;Signal;HPM_P1;HPM_P2
2021/10/18 00:00:09;;;;;;;21.55;12.55;;;8.40;99.90;;;;;;5134240;28;20425;-65
2021/10/18 00:02:35;;;;;;;21.92;12.13;;;8.40;99.90;;;;;;5115993;28;20380;-65
2021/10/18 00:05:01;;;;;;;20.80;12.33;;;8.40;99.90;;;;;;5115357;28;20023;-66
2021/10/18 00:07:26;;;;;;;20.17;12.52;;;8.40;99.90;;;;;;5135375;28;20019;-65
2021/10/18 00:09:52;;;;;;;22.00;13.23;;;8.40;99.90;;;;;;5133887;28;20160;-65
2021/10/18 00:12:17;;;;;;;22.77;12.83;;;8.40;99.90;;;;;;5134158;28;20387;-66
2021/10/18 00:14:43;;;;;;;20.20;12.03;;;8.40;99.90;;;;;;5136499;27;20031;-64
2021/10/18 00:17:09;;;;;;;18.98;11.93;;;8.30;99.90;;;;;;5137463;27;20290;-65
2021/10/18 00:19:35;;;;;;;22.60;12.57;;;8.30;99.90;;;;;;5137679;27;20024;-65
2021/10/18 00:22:00;;;;;;;21.23;13.07;;;8.30;99.90;;;;;;5137471;27;20020;-66
2021/10/18 00:24:26;;;;;;;20.93;13.47;;;8.30;99.90;;;;;;5137660;27;20277;-66
2021/10/18 00:26:51;;;;;;;23.33;11.83;;;8.20;99.90;;;;;;5137252;27;20023;-66
2021/10/18 00:29:17;;;;;;;19.53;10.63;;;8.50;99.90;;;;;;5118904;27;20088;-66
2021/10/18 00:31:43;;;;;;;21.95;12.27;;;8.40;99.90;;;;;;5137662;27;20028;-66
2021/10/18 00:34:08;;;;;;;20.20;11.13;;;8.30;99.90;;;;;;5137754;27;20035;-65
2021/10/18 00:36:34;;;;;;;19.53;12.03;;;8.10;99.90;;;;;;5137268;27;20098;-66
2021/10/18 00:39:00;;;;;;;19.60;11.97;;;8.00;99.90;;;;;;5137676;27;20034;-66
2021/10/18 00:41:25;;;;;;;21.53;11.67;;;7.90;99.90;;;;;;5137919;27;20019;-66
2021/10/18 00:43:52;;;;;;;23.07;11.60;;;7.90;99.90;;;;;;5137681;27;20475;-66
2021/10/18 00:46:23;;;;;;;21.17;11.45;;;7.80;99.90;;;;;;5137631;27;20026;-65
2021/10/18 00:48:50;;;;;;;27.65;14.90;;;7.70;99.90;;;;;;5118850;27;20037;-65
2021/10/18 00:51:17;;;;;;;25.40;13.63;;;7.70;99.90;;;;;;5137437;27;20144;-65
2021/10/18 00:53:44;;;;;;;21.67;10.85;;;7.70;99.90;;;;;;5137198;27;20037;-65
2021/10/18 00:56:10;;;;;;;16.35;9.32;;;7.60;99.90;;;;;;5136976;27;20030;-65
2021/10/18 00:58:36;;;;;;;19.25;10.98;;;7.60;99.90;;;;;;5136962;27;20034;-65
2021/10/18 01:01:02;;;;;;;20.13;10.40;;;7.60;99.90;;;;;;5136635;27;20079;-65
2021/10/18 01:03:28;;;;;;;16.45;10.13;;;7.60;99.90;;;;;;5118341;27;20023;-65
2021/10/18 01:05:54;;;;;;;16.20;10.43;;;7.60;99.90;;;;;;5118475;27;20046;-67
2021/10/18 01:08:20;;;;;;;17.80;10.20;;;7.60;99.90;;;;;;5136692;27;20023;-65
2021/10/18 01:10:45;;;;;;;15.43;9.03;;;7.60;99.90;;;;;;5136784;27;20395;-65
2021/10/18 01:13:11;;;;;;;15.70;9.57;;;7.60;99.90;;;;;;5136626;27;20398;-65
2021/10/18 01:15:37;;;;;;;16.20;9.43;;;7.60;99.90;;;;;;5118610;27;20071;-65
2021/10/18 01:18:03;;;;;;;14.73;9.47;;;7.60;99.90;;;;;;5136778;27;20031;-66
2021/10/18 01:20:39;;;;;;;17.65;9.25;;;7.70;99.90;;;;;;5119156;27;20281;-65
2021/10/18 01:23:07;;;;;;;17.67;9.60;;;7.80;99.90;;;;;;5118543;27;20023;-67
2021/10/18 01:25:33;;;;;;;18.40;9.57;;;7.80;99.90;;;;;;5135140;27;20273;-65
2021/10/18 01:27:59;;;;;;;15.52;9.50;;;7.80;99.90;;;;;;5136310;27;20030;-65
2021/10/18 01:30:26;;;;;;;16.23;9.93;;;7.80;99.90;;;;;;5136361;27;20475;-65
2021/10/18 01:32:52;;;;;;;16.98;10.15;;;7.70;99.90;;;;;;5117606;27;20027;-65
2021/10/18 01:35:17;;;;;;;19.63;10.73;;;7.60;99.90;;;;;;5136268;27;20031;-65
2021/10/18 01:37:43;;;;;;;20.33;10.85;;;7.60;99.90;;;;;;5136199;27;20025;-65
2021/10/18 01:40:11;;;;;;;19.13;11.30;;;7.60;99.90;;;;;;5136457;27;20031;-66
2021/10/18 01:42:38;;;;;;;17.58;10.23;;;7.60;99.90;;;;;;5136418;27;20028;-65
2021/10/18 01:45:08;;;;;;;16.25;9.48;;;7.50;99.90;;;;;;5135995;27;20031;-66
2021/10/18 01:47:34;;;;;;;16.23;9.50;;;7.50;99.90;;;;;;5136174;27;20484;-66
2021/10/18 01:50:00;;;;;;;17.73;9.40;;;7.60;99.90;;;;;;5135612;27;20047;-66
2021/10/18 01:52:26;;;;;;;15.50;8.60;;;7.60;99.90;;;;;;5135827;27;20023;-65
2021/10/18 01:54:52;;;;;;;15.90;9.43;;;7.60;99.90;;;;;;5135508;27;20272;-66
2021/10/18 01:57:18;;;;;;;16.80;9.48;;;7.50;99.90;;;;;;5117824;27;20038;-63
2021/10/18 01:59:44;;;;;;;15.00;8.80;;;7.60;99.90;;;;;;5117257;27;20027;-64
2021/10/18 02:02:10;;;;;;;13.15;8.43;;;7.60;99.90;;;;;;5135644;27;20035;-65
2021/10/18 02:04:35;;;;;;;13.13;8.40;;;7.60;99.90;;;;;;5117415;27;20023;-65
2021/10/18 02:07:01;;;;;;;17.20;9.23;;;7.60;99.90;;;;;;5117107;27;20015;-65
2021/10/18 02:09:27;;;;;;;14.97;9.80;;;7.60;99.90;;;;;;5135742;27;20062;-65
2021/10/18 02:11:53;;;;;;;15.02;9.30;;;7.60;99.90;;;;;;5135633;27;20316;-65
2021/10/18 02:14:19;;;;;;;14.57;9.07;;;7.50;99.90;;;;;;5136016;27;20467;-65
2021/10/18 02:16:44;;;;;;;14.20;8.60;;;7.50;99.90;;;;;;5135700;27;20065;-65
2021/10/18 02:19:10;;;;;;;14.77;9.50;;;7.40;99.90;;;;;;5135697;27;20031;-64
2021/10/18 02:21:36;;;;;;;17.20;10.48;;;7.40;99.90;;;;;;5135427;27;20487;-64
2021/10/18 02:24:02;;;;;;;13.95;8.43;;;7.40;99.90;;;;;;5116840;27;20035;-65
2021/10/18 02:26:28;;;;;;;15.52;9.63;;;7.40;99.90;;;;;;5155453;22;20514;-66
2021/10/18 02:28:54;;;;;;;13.53;8.03;;;7.40;99.90;;;;;;5116264;27;20027;-66
2021/10/18 02:31:19;;;;;;;15.13;8.17;;;7.30;99.90;;;;;;5116164;27;20027;-66
2021/10/18 02:33:45;;;;;;;12.87;7.80;;;7.40;99.90;;;;;;5134708;27;20733;-66
2021/10/18 02:36:10;;;;;;;14.37;8.90;;;7.30;99.90;;;;;;5134406;27;20463;-66
2021/10/18 02:38:38;;;;;;;13.73;8.73;;;7.30;99.90;;;;;;5134693;27;20030;-68
2021/10/18 02:41:04;;;;;;;13.98;8.30;;;7.50;99.90;;;;;;5134300;27;20023;-65
2021/10/18 02:43:29;;;;;;;14.60;8.77;;;7.40;99.90;;;;;;5116251;27;20023;-67
2021/10/18 02:45:55;;;;;;;11.47;7.83;;;7.40;99.90;;;;;;5134375;27;20792;-67
2021/10/18 02:48:21;;;;;;;15.13;8.27;;;7.30;99.90;;;;;;5134308;27;20058;-67
2021/10/18 02:50:47;;;;;;;13.85;8.07;;;7.30;99.90;;;;;;5134238;27;20023;-67
2021/10/18 02:53:12;;;;;;;11.93;7.70;;;7.30;99.90;;;;;;5134146;27;20395;-67
2021/10/18 02:55:38;;;;;;;13.73;8.43;;;7.30;99.90;;;;;;5134164;27;20113;-67
2021/10/18 02:58:04;;;;;;;17.17;8.17;;;7.30;99.90;;;;;;5134227;27;20098;-66
2021/10/18 03:00:30;;;;;;;13.63;7.77;;;7.20;99.90;;;;;;5134012;27;20023;-67
2021/10/18 03:02:55;;;;;;;12.43;8.10;;;7.20;99.90;;;;;;5134014;27;20027;-67
2021/10/18 03:05:21;;;;;;;14.33;8.60;;;7.20;99.90;;;;;;5134262;27;20482;-67
2021/10/18 03:07:51;;;;;;;15.23;8.50;;;7.10;99.90;;;;;;5133790;27;20054;-67
2021/10/18 03:10:18;;;;;;;12.73;8.15;;;7.10;99.90;;;;;;5134289;27;20093;-67
2021/10/18 03:12:43;;;;;;;11.85;7.53;;;7.10;99.90;;;;;;5134327;27;20027;-66
2021/10/18 03:15:09;;;;;;;14.70;8.70;;;7.10;99.90;;;;;;5115341;28;20042;-66
2021/10/18 03:17:34;;;;;;;11.57;7.67;;;7.10;99.90;;;;;;5134498;28;20383;-66
2021/10/18 03:20:00;;;;;;;12.67;7.80;;;7.10;99.90;;;;;;5133936;28;20049;-66
2021/10/18 03:22:26;;;;;;;14.30;8.88;;;7.00;99.90;;;;;;5133990;28;20306;-66
2021/10/18 03:24:52;;;;;;;15.87;8.17;;;7.00;99.90;;;;;;5115281;28;20020;-68
2021/10/18 03:27:17;;;;;;;16.13;9.00;;;7.00;99.90;;;;;;5133770;28;20440;-66
2021/10/18 03:29:43;;;;;;;16.87;9.40;;;7.00;99.90;;;;;;5134155;28;20055;-66
2021/10/18 03:32:09;;;;;;;16.37;10.13;;;7.00;99.90;;;;;;5115668;28;20066;-67
2021/10/18 03:34:34;;;;;;;17.03;8.60;;;6.90;99.90;;;;;;5135168;28;20019;-68
2021/10/18 03:37:00;;;;;;;16.37;8.83;;;6.90;99.90;;;;;;5117925;28;20030;-67
2021/10/18 03:39:25;;;;;;;14.30;9.40;;;6.90;99.90;;;;;;5133768;28;20031;-68
2021/10/18 03:41:51;;;;;;;12.97;8.33;;;6.90;99.90;;;;;;5134260;28;20020;-67
2021/10/18 03:44:17;;;;;;;13.83;8.97;;;6.90;99.90;;;;;;5134254;28;20025;-67
2021/10/18 03:46:42;;;;;;;13.60;8.90;;;6.80;99.90;;;;;;5115811;28;20114;-67
2021/10/18 03:49:08;;;;;;;13.93;8.73;;;6.80;99.90;;;;;;5135722;27;20031;-66
2021/10/18 03:51:33;;;;;;;13.53;9.90;;;6.80;99.90;;;;;;5138097;27;20027;-67
2021/10/18 03:53:59;;;;;;;19.67;11.53;;;6.80;99.90;;;;;;5138063;27;20047;-67
2021/10/18 03:56:25;;;;;;;18.90;11.83;;;6.80;99.90;;;;;;5138258;27;20023;-67
2021/10/18 03:58:50;;;;;;;19.73;10.70;;;6.80;99.90;;;;;;5138020;27;20460;-68
2021/10/18 04:01:16;;;;;;;16.60;10.70;;;6.80;99.90;;;;;;5137668;27;20023;-67
2021/10/18 04:03:41;;;;;;;16.77;11.30;;;6.80;99.90;;;;;;5137837;27;20027;-68
2021/10/18 04:06:07;;;;;;;16.93;11.13;;;6.80;99.90;;;;;;5137553;27;20015;-67
2021/10/18 04:08:33;;;;;;;16.13;10.13;;;6.80;99.90;;;;;;5119244;27;20076;-70
2021/10/18 04:11:00;;;;;;;15.68;9.75;;;6.80;99.90;;;;;;5118912;27;20031;-70
2021/10/18 04:13:26;;;;;;;14.50;9.55;;;6.80;99.90;;;;;;5137740;27;20051;-70
2021/10/18 04:15:52;;;;;;;18.35;10.73;;;6.80;99.90;;;;;;5137887;27;20031;-71
2021/10/18 04:18:18;;;;;;;22.63;13.50;;;6.80;99.90;;;;;;5119623;27;20051;-71
2021/10/18 04:20:45;;;;;;;15.55;9.65;;;6.90;99.90;;;;;;5119911;27;20080;-70
2021/10/18 04:23:10;;;;;;;15.45;9.35;;;6.80;99.90;;;;;;5119366;27;20035;-66
2021/10/18 04:25:36;;;;;;;15.77;9.93;;;6.80;99.90;;;;;;5137341;27;20106;-65
2021/10/18 04:28:02;;;;;;;14.73;9.00;;;6.80;99.90;;;;;;5137557;27;20048;-65
2021/10/18 04:30:27;;;;;;;13.70;9.20;;;6.80;99.90;;;;;;5137515;27;20098;-66
2021/10/18 04:32:54;;;;;;;14.68;8.88;;;6.80;99.90;;;;;;5137430;27;20099;-67
2021/10/18 04:35:20;;;;;;;;;;;6.70;99.90;;;;;;5118817;27;20114;-66
2021/10/18 04:37:46;;;;;;;18.98;10.23;;;6.70;99.90;;;;;;5136835;27;20363;-65
2021/10/18 04:40:11;;;;;;;14.65;9.00;;;6.70;99.90;;;;;;5136991;27;20133;-65
2021/10/18 04:42:37;;;;;;;13.32;8.90;;;6.70;99.90;;;;;;5137072;27;20043;-65
2021/10/18 04:45:03;;;;;;;16.83;10.13;;;6.70;99.90;;;;;;5118005;27;20118;-66
2021/10/18 04:47:29;;;;;;;18.60;11.13;;;6.70;99.90;;;;;;5136851;27;20451;-67
2021/10/18 04:49:55;;;;;;;16.37;10.40;;;6.60;99.90;;;;;;5117940;27;20078;-68
2021/10/18 04:52:20;;;;;;;16.03;10.37;;;6.60;99.90;;;;;;5136457;27;20053;-67
2021/10/18 04:54:46;;;;;;;17.53;10.33;;;6.60;99.90;;;;;;5136441;27;20022;-67
2021/10/18 04:57:13;;;;;;;16.50;10.27;;;6.60;99.90;;;;;;5136324;27;20035;-67
2021/10/18 04:59:38;;;;;;;14.07;9.15;;;6.60;99.90;;;;;;5118580;27;20092;-68
2021/10/18 05:02:04;;;;;;;14.47;9.47;;;6.60;99.90;;;;;;5117925;27;20114;-67
2021/10/18 05:04:30;;;;;;;13.73;8.97;;;6.60;99.90;;;;;;5136771;27;20053;-67
2021/10/18 05:06:56;;;;;;;16.07;10.07;;;6.60;99.90;;;;;;5136091;27;20026;-66
2021/10/18 05:09:21;;;;;;;14.55;9.88;;;6.60;99.90;;;;;;5135944;27;20022;-66
2021/10/18 05:11:47;;;;;;;15.80;10.03;;;6.70;99.90;;;;;;5135988;27;20479;-68
2021/10/18 05:14:12;;;;;;;16.00;10.10;;;6.70;99.90;;;;;;5117297;27;20332;-67
2021/10/18 05:16:39;;;;;;;16.80;10.27;;;6.80;99.90;;;;;;5117407;27;20042;-67
2021/10/18 05:19:05;;;;;;;14.10;9.48;;;6.80;99.90;;;;;;5142910;27;20022;-67
2021/10/18 05:21:31;;;;;;;20.83;10.68;;;6.80;99.90;;;;;;5138526;27;20019;-66
2021/10/18 05:23:56;;;;;;;18.17;9.70;;;6.70;99.90;;;;;;5121106;27;20027;-74
2021/10/18 05:26:22;;;;;;;17.80;11.50;;;6.70;99.90;;;;;;5139828;27;20122;-73
2021/10/18 05:28:48;;;;;;;14.83;9.03;;;6.80;99.90;;;;;;5118895;27;20109;-68
2021/10/18 05:31:13;;;;;;;18.27;10.20;;;6.80;99.90;;;;;;5117564;27;20359;-69
2021/10/18 05:33:39;;;;;;;16.77;9.60;;;6.80;99.90;;;;;;5137326;27;20046;-66
2021/10/18 05:36:05;;;;;;;16.83;9.23;;;6.80;99.90;;;;;;5117561;27;20558;-66
2021/10/18 05:38:30;;;;;;;16.03;10.13;;;6.90;99.90;;;;;;5136255;27;20380;-66
2021/10/18 05:40:56;;;;;;;15.83;8.20;;;7.10;99.90;;;;;;5118144;27;20118;-65
2021/10/18 05:43:22;;;;;;;16.47;9.27;;;7.50;99.90;;;;;;5137927;27;20354;-66
2021/10/18 05:45:47;;;;;;;17.07;9.80;;;7.60;99.90;;;;;;5138163;27;20413;-67
2021/10/18 05:48:15;;;;;;;14.43;8.67;;;7.50;99.90;;;;;;5138689;27;20019;-67
2021/10/18 05:50:44;;;;;;;14.05;8.63;;;7.40;99.90;;;;;;5119316;27;20027;-67
2021/10/18 05:53:10;;;;;;;15.40;9.00;;;7.30;99.90;;;;;;5117166;27;20071;-67
2021/10/18 05:55:35;;;;;;;17.80;10.23;;;7.20;99.90;;;;;;5135460;27;20023;-67
2021/10/18 05:58:07;;;;;;;14.53;9.40;;;7.20;99.90;;;;;;5137523;27;20091;-67
2021/10/18 06:00:35;;;;;;;22.85;10.45;;;7.10;99.90;;;;;;5118054;27;20052;-67
2021/10/18 06:03:01;;;;;;;18.05;10.38;;;7.10;99.90;;;;;;5135572;27;20061;-67
2021/10/18 06:05:27;;;;;;;16.50;9.90;;;7.00;99.90;;;;;;5137060;27;20118;-67
2021/10/18 06:08:02;;;;;;;21.13;9.52;;;6.90;99.90;;;;;;5118497;27;20567;-67
2021/10/18 06:10:27;;;;;;;15.15;9.63;;;6.80;99.90;;;;;;5135574;27;20043;-67
2021/10/18 06:12:53;;;;;;;14.73;8.97;;;6.80;99.90;;;;;;5134506;27;20033;-67
2021/10/18 06:15:20;;;;;;;15.93;8.63;;;6.80;99.90;;;;;;5134895;27;20360;-67
2021/10/18 06:17:46;;;;;;;14.50;8.68;;;6.80;99.90;;;;;;5116378;27;20478;-67
2021/10/18 06:20:13;;;;;;;13.55;8.80;;;6.90;99.90;;;;;;5116394;27;20035;-67
2021/10/18 06:22:38;;;;;;;12.75;8.00;;;7.10;99.90;;;;;;5116945;27;20019;-67
2021/10/18 06:25:05;;;;;;;15.13;7.87;;;7.10;99.90;;;;;;5116651;27;20041;-67
2021/10/18 06:27:31;;;;;;;12.35;8.25;;;7.10;99.90;;;;;;5116564;27;20106;-67
2021/10/18 06:29:57;;;;;;;11.00;6.87;;;7.00;99.90;;;;;;5116810;27;20034;-67
2021/10/18 06:32:22;;;;;;;13.03;8.47;;;7.00;99.90;;;;;;5118013;27;20027;-67
2021/10/18 06:34:48;;;;;;;13.30;7.77;;;6.90;99.90;;;;;;5116403;27;20027;-67
2021/10/18 06:37:13;;;;;;;15.77;8.80;;;7.00;99.90;;;;;;5116059;27;20080;-67
2021/10/18 06:39:39;;;;;;;11.23;7.37;;;7.20;99.90;;;;;;5134961;27;20026;-66
2021/10/18 06:42:05;;;;;;;12.87;8.23;;;7.20;99.90;;;;;;5135573;27;20379;-67
2021/10/18 06:44:30;;;;;;;16.10;8.20;;;7.30;99.90;;;;;;5134595;27;20249;-67
2021/10/18 06:46:56;;;;;;;12.80;7.33;;;7.20;99.90;;;;;;5134711;27;20022;-66
2021/10/18 06:49:23;;;;;;;15.00;8.43;;;7.20;99.90;;;;;;5134572;27;20407;-66
2021/10/18 06:51:52;;;;;;;14.52;9.20;;;7.20;99.90;;;;;;5115679;27;20015;-66
2021/10/18 06:54:19;;;;;;;14.50;9.02;;;7.30;99.90;;;;;;5116453;27;20490;-67
2021/10/18 06:56:45;;;;;;;15.48;8.48;;;7.40;99.90;;;;;;5134513;27;20068;-67
2021/10/18 06:59:17;;;;;;;15.70;7.97;;;7.40;99.90;;;;;;5134269;27;20382;-67
2021/10/18 07:01:42;;;;;;;13.32;7.82;;;7.60;99.90;;;;;;5134683;27;20028;-67
2021/10/18 07:04:09;;;;;;;16.10;9.00;;;7.80;99.90;;;;;;5116290;28;20019;-66
2021/10/18 07:06:34;;;;;;;;;;;8.10;99.90;;;;;;5116601;27;20019;-67
2021/10/18 07:09:01;;;;;;;16.92;8.52;;;8.20;99.90;;;;;;5116420;28;19980;-66
2021/10/18 07:11:26;;;;;;;15.68;8.75;;;8.10;99.90;;;;;;5115770;27;20019;-66
2021/10/18 07:13:53;;;;;;;19.37;9.97;;;8.00;99.90;;;;;;5134019;27;20087;-66
2021/10/18 07:16:18;;;;;;;;;;;7.90;99.90;;;;;;5134473;27;20085;-66
2021/10/18 07:18:44;;;;;;;13.40;7.75;;;8.10;99.90;;;;;;5134110;28;20415;-66
2021/10/18 07:21:10;;;;;;;17.43;8.13;;;8.10;99.90;;;;;;5115358;28;20118;-66
2021/10/18 07:23:36;;;;;;;14.85;6.97;;;8.00;99.90;;;;;;5116223;27;20026;-66
2021/10/18 07:26:03;;;;;;;11.35;6.90;;;7.90;99.90;;;;;;5138140;27;20106;-67
2021/10/18 07:28:29;;;;;;;13.13;6.40;;;7.80;99.90;;;;;;5138215;27;20019;-66
2021/10/18 07:30:57;;;;;;;10.13;6.55;;;7.80;99.90;;;;;;5119940;27;20391;-66
2021/10/18 07:33:23;;;;;;;11.00;6.13;;;7.80;99.90;;;;;;5138272;27;20023;-65
2021/10/18 07:35:49;;;;;;;12.13;6.30;;;7.90;99.90;;;;;;5138214;27;20473;-65
2021/10/18 07:38:14;;;;;;;9.33;5.83;;;8.00;99.90;;;;;;5138277;27;20023;-65
2021/10/18 07:40:40;;;;;;;12.03;6.40;;;8.00;99.90;;;;;;5138115;27;20769;-66
2021/10/18 07:43:07;;;;;;;10.20;5.87;;;7.90;99.90;;;;;;5138064;27;20030;-66
2021/10/18 07:45:33;;;;;;;9.55;5.63;;;7.90;99.90;;;;;;5119548;27;20475;-66
2021/10/18 07:47:59;;;;;;;15.98;7.63;;;7.90;99.90;;;;;;5138097;27;20023;-65
2021/10/18 07:50:25;;;;;;;12.75;7.40;;;8.00;99.90;;;;;;5137845;27;20056;-67
2021/10/18 07:52:50;;;;;;;8.90;6.10;;;8.00;99.90;;;;;;5138234;27;20380;-66
2021/10/18 07:55:19;;;;;;;15.50;8.43;;;8.10;99.90;;;;;;5138511;27;20453;-67
2021/10/18 07:57:48;;;;;;;12.32;7.22;;;8.20;99.90;;;;;;5140394;27;20019;-66
2021/10/18 08:00:14;;;;;;;10.00;6.60;;;8.30;99.90;;;;;;5140229;27;20083;-68
2021/10/18 08:02:40;;;;;;;10.73;5.97;;;8.30;99.90;;;;;;5122483;27;20535;-67
2021/10/18 08:05:07;;;;;;;11.00;5.75;;;8.30;99.90;;;;;;5138500;27;20037;-67
2021/10/18 08:07:37;;;;;;;8.73;5.60;;;8.40;99.90;;;;;;5141519;27;20019;-67
2021/10/18 08:10:06;;;;;;;10.50;5.97;;;8.40;99.90;;;;;;5138559;27;20020;-67
2021/10/18 08:12:32;;;;;;;9.48;5.85;;;8.40;99.90;;;;;;5119679;27;20469;-66
2021/10/18 08:14:58;;;;;;;9.65;5.65;;;8.50;99.90;;;;;;5137774;27;20124;-68
2021/10/18 08:17:24;;;;;;;14.90;7.22;;;8.40;99.90;;;;;;5138411;27;20023;-67
2021/10/18 08:19:50;;;;;;;12.07;6.70;;;8.50;99.90;;;;;;5118986;27;20023;-66
2021/10/18 08:22:16;;;;;;;9.95;6.00;;;8.40;99.90;;;;;;5119411;27;20475;-67
2021/10/18 08:24:42;;;;;;;9.00;5.65;;;8.40;99.90;;;;;;5137663;27;20042;-68
2021/10/18 08:27:08;;;;;;;11.23;5.07;;;8.40;99.90;;;;;;5119198;27;20139;-69
2021/10/18 08:29:33;;;;;;;10.90;5.73;;;8.50;99.90;;;;;;5136908;27;20046;-69
2021/10/18 08:31:59;;;;;;;10.45;5.50;;;8.50;99.90;;;;;;5136991;27;20100;-69
2021/10/18 08:34:25;;;;;;;8.03;5.67;;;8.60;99.90;;;;;;5118223;27;20076;-69
2021/10/18 08:36:50;;;;;;;9.13;5.63;;;8.70;99.90;;;;;;5118307;27;20019;-69
2021/10/18 08:41:51;;;;;;;10.33;6.00;;;8.80;99.90;;;;;;5136503;27;20353;-69
2021/10/18 08:44:17;;;;;;;9.50;5.60;;;8.90;99.90;;;;;;5136437;27;20046;-69
2021/10/18 08:46:48;;;;;;;9.35;5.93;;;8.90;99.90;;;;;;5136773;27;20059;-69
2021/10/18 08:49:14;;;;;;;10.02;6.13;;;9.10;99.90;;;;;;5136682;27;20376;-69
2021/10/18 08:51:39;;;;;;;11.57;5.78;;;9.20;99.90;;;;;;5136445;27;20016;-69
2021/10/18 08:54:09;;;;;;;11.07;6.60;;;9.30;99.90;;;;;;5117987;27;20440;-69
2021/10/18 08:56:36;;;;;;;9.95;6.25;;;9.40;99.90;;;;;;5136346;27;20363;-69
2021/10/18 08:59:02;;;;;;;9.57;6.07;;;9.50;99.90;;;;;;5136846;27;20046;-69
2021/10/18 09:01:58;;;;;;;11.13;6.53;;;9.60;99.90;;;;;;5136305;27;20019;-69
2021/10/18 09:04:29;;;;;;;11.18;6.93;;;9.90;99.90;;;;;;5131713;27;20108;-69
2021/10/18 09:07:00;;;;;;;17.02;6.95;;;10.10;99.90;;;;;;5117815;27;20076;-69
2021/10/18 09:09:28;;;;;;;10.57;6.93;;;10.10;99.90;;;;;;5117593;27;20091;-69
2021/10/18 09:11:58;;;;;;;12.38;7.28;;;10.00;99.90;;;;;;5117480;27;20019;-69
2021/10/18 09:14:24;;;;;;;14.52;7.93;;;10.10;99.90;;;;;;5117595;27;20114;-69
2021/10/18 09:16:50;;;;;;;11.48;7.15;;;10.30;99.90;;;;;;5117307;27;20581;-69
2021/10/18 09:19:23;;;;;;;16.33;7.53;;;10.30;99.90;;;;;;5135707;27;20052;-69
2021/10/18 09:22:01;;;;;;;12.98;7.18;;;10.60;99.90;;;;;;5135804;27;20459;-69
2021/10/18 09:24:29;;;;;;;12.27;7.60;;;10.90;99.90;;;;;;5135722;27;20120;-69
2021/10/18 09:26:58;;;;;;;11.32;7.30;;;11.20;99.90;;;;;;5135449;27;20106;-69
2021/10/18 09:29:45;;;;;;;10.82;7.45;;;11.50;99.90;;;;;;5135810;27;20043;-69
2021/10/18 09:32:21;;;;;;;13.18;7.50;;;12.00;99.90;;;;;;5136211;27;20027;-69
2021/10/18 09:34:47;;;;;;;12.43;8.23;;;12.80;99.90;;;;;;5135745;27;20019;-69
2021/10/18 09:37:14;;;;;;;;;;;13.90;99.90;;;;;;5117609;27;20019;-69
2021/10/18 09:39:42;;;;;;;17.10;8.95;;;15.00;99.90;;;;;;5135426;27;20341;-69
2021/10/18 09:42:12;;;;;;;13.52;8.63;;;16.10;99.90;;;;;;5135782;27;20080;-69
2021/10/18 09:45:24;;;;;;;14.95;8.55;;;17.60;99.10;;;;;;5116766;27;20047;-68
2021/10/18 10:53:31;;;;;;;14.48;11.00;;;21.90;71.90;;;;;;5134445;27;20113;-69
2021/10/18 10:56:15;;;;;;;14.18;10.32;;;20.30;75.90;;;;;;5133814;27;20069;-69
2021/10/18 10:58:52;;;;;;;16.73;11.65;;;18.80;80.90;;;;;;5134120;27;20031;-68
2021/10/18 11:01:36;;;;;;;;;;;17.80;84.70;;;;;;5134320;27;20023;-70
2021/10/18 11:04:29;;;;;;;15.90;10.48;;;17.10;88.40;;;;;;5134288;27;19975;-69
2021/10/18 11:07:08;;;;;;;16.10;11.05;;;16.50;91.20;;;;;;5115636;27;20471;-69
2021/10/18 11:09:52;;;;;;;17.63;11.32;;;16.00;92.60;;;;;;5134324;27;20038;-69
2021/10/18 11:12:22;;;;;;;16.98;11.70;;;15.60;94.00;;;;;;5115579;28;20043;-69
2021/10/18 11:14:58;;;;;;;18.92;11.80;;;15.10;95.00;;;;;;5134022;27;20475;-69
2021/10/18 11:17:26;;;;;;;20.15;11.27;;;14.90;96.90;;;;;;5133873;27;20023;-69
2021/10/18 11:20:00;;;;;;;14.00;10.35;;;14.50;98.00;;;;;;5133659;28;20484;-69
2021/10/18 11:22:32;;;;;;;16.23;10.48;;;14.40;99.10;;;;;;5134029;28;20379;-70
2021/10/18 11:24:58;;;;;;;21.15;12.32;;;14.30;99.80;;;;;;5115224;28;20035;-69
2021/10/18 11:27:25;;;;;;;;;;;14.10;99.90;;;;;;5134273;28;20383;-70
2021/10/18 11:29:56;;;;;;;16.98;11.15;;;13.80;99.90;;;;;;5133753;28;19903;-70
2021/10/18 11:32:23;;;;;;;15.23;9.88;;;13.80;99.90;;;;;;5115212;28;20032;-70
2021/10/18 11:34:48;;;;;;;16.23;9.95;;;13.80;99.90;;;;;;5133808;28;20471;-70
2021/10/18 11:37:14;;;;;;;16.58;9.77;;;13.80;99.90;;;;;;5133453;28;20062;-70
2021/10/18 11:39:40;;;;;;;16.15;10.63;;;13.80;99.90;;;;;;5133411;28;20163;-70
2021/10/18 11:42:09;;;;;;;19.20;10.77;;;13.70;99.90;;;;;;5115181;28;20019;-69
2021/10/18 11:44:48;;;;;;;16.85;10.75;;;13.70;99.90;;;;;;5114880;28;20846;-70
2021/10/18 11:47:37;;;;;;;18.70;11.93;;;13.60;99.90;;;;;;5115815;28;20027;-71
2021/10/18 11:50:22;;;;;;;16.48;10.73;;;13.60;99.90;;;;;;5134004;28;20035;-70
2021/10/18 11:52:53;;;;;;;17.13;11.07;;;13.60;99.90;;;;;;5134231;28;20024;-70
2021/10/18 11:55:33;;;;;;;18.05;11.10;;;13.50;99.90;;;;;;5133857;28;20439;-70
2021/10/18 11:58:04;;;;;;;18.52;11.73;;;13.50;99.90;;;;;;5133956;28;20494;-70
2021/10/18 12:00:33;;;;;;;15.70;10.75;;;13.40;99.90;;;;;;5134256;28;20035;-70
2021/10/18 12:03:01;;;;;;;17.23;12.63;;;13.40;99.90;;;;;;5115524;28;20019;-70
2021/10/18 12:05:35;;;;;;;15.52;10.30;;;13.40;99.90;;;;;;5133487;28;20018;-70
2021/10/18 12:08:02;;;;;;;17.73;12.13;;;13.40;99.90;;;;;;5133459;28;20023;-69
2021/10/18 12:10:29;;;;;;;18.83;11.80;;;13.40;99.90;;;;;;5135181;27;20027;-69
2021/10/18 12:13:13;;;;;;;18.90;11.95;;;13.50;99.90;;;;;;5118640;27;20023;-69
2021/10/18 12:15:48;;;;;;;20.52;11.27;;;13.50;99.90;;;;;;5137694;27;20028;-70
2021/10/18 12:18:24;;;;;;;17.08;11.30;;;13.50;99.90;;;;;;5119271;27;20034;-69
2021/10/18 12:20:52;;;;;;;17.60;11.55;;;13.60;99.90;;;;;;5118599;27;20023;-69
2021/10/18 12:23:22;;;;;;;17.58;11.32;;;13.60;99.90;;;;;;5136803;27;20047;-70
2021/10/18 12:25:57;;;;;;;16.83;11.48;;;13.60;99.90;;;;;;5136906;27;20468;-70
2021/10/18 12:28:51;;;;;;;18.58;11.25;;;13.60;99.90;;;;;;5118559;27;20019;-69
2021/10/18 12:31:33;;;;;;;20.38;12.55;;;13.70;99.90;;;;;;5137008;27;20034;-69
2021/10/18 12:34:08;;;;;;;18.52;11.25;;;13.70;99.90;;;;;;5118673;27;20035;-69
2021/10/18 12:37:09;;;;;;;16.50;11.18;;;13.80;99.90;;;;;;5137149;27;20049;-70
2021/10/18 12:39:46;;;;;;;18.60;12.80;;;13.90;99.90;;;;;;5131896;27;20039;-69
2021/10/18 12:42:14;;;;;;;21.20;12.00;;;13.90;99.90;;;;;;5137014;27;20038;-70
2021/10/18 12:44:43;;;;;;;16.40;11.38;;;13.90;99.90;;;;;;5118352;27;20027;-70
2021/10/18 12:47:19;;;;;;;21.38;11.25;;;13.80;99.90;;;;;;5118429;27;20536;-70
2021/10/18 12:49:52;;;;;;;21.23;11.67;;;13.90;99.90;;;;;;5136906;27;20475;-69
2021/10/18 12:52:32;;;;;;;20.83;13.13;;;13.90;99.90;;;;;;5118222;27;20031;-70
2021/10/18 12:54:59;;;;;;;18.27;11.32;;;13.80;99.90;;;;;;5136676;27;20023;-69
2021/10/18 12:57:27;;;;;;;16.05;11.25;;;13.80;99.90;;;;;;5136575;27;20019;-70
2021/10/18 13:00:06;;;;;;;17.15;11.15;;;13.80;99.90;;;;;;5136860;27;20034;-69
2021/10/18 13:02:33;;;;;;;18.67;11.45;;;13.90;99.90;;;;;;5136667;27;20025;-70
2021/10/18 13:05:02;;;;;;;19.95;12.02;;;13.90;99.90;;;;;;5136334;27;20019;-71
2021/10/18 13:07:29;;;;;;;20.17;11.23;;;13.90;99.90;;;;;;5118317;27;20072;-69
2021/10/18 13:09:55;;;;;;;19.17;11.18;;;13.90;99.90;;;;;;5118180;27;20503;-69
2021/10/18 13:12:22;;;;;;;18.27;11.20;;;13.80;99.90;;;;;;5136453;27;20031;-69
2021/10/18 13:14:48;;;;;;;16.75;11.30;;;13.80;99.90;;;;;;5119565;27;20038;-68
2021/10/18 13:17:14;;;;;;;18.55;10.27;;;13.80;99.90;;;;;;5117875;27;20035;-71
2021/10/18 13:19:40;;;;;;;15.87;10.33;;;13.80;99.90;;;;;;5117549;27;20031;-72
2021/10/18 13:22:05;;;;;;;18.57;11.50;;;13.90;99.90;;;;;;5117371;27;20262;-71
2021/10/18 13:24:31;;;;;;;18.40;11.10;;;14.00;99.90;;;;;;5117705;27;20348;-71
2021/10/18 13:26:57;;;;;;;18.23;10.43;;;14.00;99.90;;;;;;5135926;27;20292;-71
2021/10/18 13:29:24;;;;;;;19.77;11.15;;;14.10;99.90;;;;;;5115986;27;20023;-69
2021/10/18 13:31:50;;;;;;;18.73;10.80;;;14.10;99.90;;;;;;5135068;27;20030;-71
2021/10/18 13:34:16;;;;;;;17.13;10.48;;;14.00;99.90;;;;;;5118110;27;20072;-74
2021/10/18 13:36:41;;;;;;;21.52;13.30;;;14.10;99.90;;;;;;5120351;27;20030;-70
2021/10/18 13:39:07;;;;;;;18.67;11.53;;;14.10;99.90;;;;;;5125212;27;20015;-72
2021/10/18 13:41:33;;;;;;;18.15;12.02;;;14.10;99.90;;;;;;5123002;27;20316;-72
2021/10/18 13:44:01;;;;;;;23.45;12.73;;;14.00;99.90;;;;;;5138484;27;20475;-75
2021/10/18 13:46:27;;;;;;;20.35;12.10;;;14.00;99.90;;;;;;5138670;27;20016;-77
2021/10/18 13:48:53;;;;;;;24.92;13.60;;;13.90;99.90;;;;;;5118590;27;20019;-72
2021/10/18 13:51:19;;;;;;;20.70;12.37;;;13.90;99.90;;;;;;5136665;27;20026;-74
2021/10/18 13:53:45;;;;;;;20.55;12.85;;;13.90;99.90;;;;;;5136443;27;20767;-70